Time;durP1;ratioP1;P1;durP2;ratioP2;P2;SDS_P1;SDS_P2;PMS_P1;PMS_P2;Temp;Humidity;BMP_temperature;BMP_pressure;BME280_temperature;BME280_humidity;BME280_pressure;Samples;Min_cycle;Max_cycle;Signal;HPM_P1;HPM_P2
2022/09/08 00:00:24;;;;;;;;;;;;;;;20.86;58.32;100779.56;5113706;28;20001;-57
2022/09/08 00:02:49;;;;;;;;;;;;;;;20.83;62.77;100774.50;5113616;27;19916;-57
2022/09/08 00:05:17;;;;;;;;;;;;;;;20.75;60.17;100771.75;5146732;27;19914;-56
2022/09/08 00:07:43;;;;;;;;;;;;;;;20.74;58.44;100783.59;5113694;28;19991;-56
2022/09/08 00:10:08;;;;;;;;;;;;;;;20.59;60.17;100776.13;5112171;28;19947;-57
2022/09/08 00:12:37;;;;;;;;;;;;;;;20.57;58.81;100796.19;5112597;28;20400;-56
2022/09/08 00:15:03;;;;;;;;;;;;;;;20.53;63.60;100787.56;5113034;28;20012;-56
2022/09/08 00:17:28;;;;;;;;;;;;;;;20.46;62.92;100781.09;5129294;27;19920;-56
2022/09/08 00:19:55;;;;;;;;;;;;;;;20.38;62.05;100770.22;5113451;28;20358;-57
2022/09/08 00:22:21;;;;;;;;;;;;;;;20.34;60.10;100774.28;5113447;27;19953;-56
2022/09/08 00:24:46;;;;;;;;;;;;;;;20.36;61.71;100759.59;5112123;28;19912;-57
2022/09/08 00:27:11;;;;;;;;;;;;;;;20.37;59.92;100755.03;5112137;28;19907;-57
2022/09/08 00:29:37;;;;;;;;;;;;;;;20.36;60.34;100745.25;5112571;28;19907;-56
2022/09/08 00:32:02;;;;;;;;;;;;;;;20.34;62.51;100744.56;5113304;28;19918;-56
2022/09/08 00:34:28;;;;;;;;;;;;;;;20.33;63.69;100745.59;5113144;28;19914;-56
2022/09/08 00:36:56;;;;;;;;;;;;;;;20.35;63.93;100752.53;5111631;28;19912;-56
2022/09/08 00:39:22;;;;;;;;;;;;;;;20.32;64.08;100741.16;5113039;28;19907;-57
2022/09/08 00:41:47;;;;;;;;;;;;;;;20.31;61.55;100750.28;5113215;28;19907;-56
2022/09/08 00:44:32;;;;;;;;;;;;;;;20.25;63.41;100743.69;5107251;28;19915;-56
2022/09/08 00:46:57;;;;;;;;;;;;;;;20.24;63.55;100731.19;5111445;28;19916;-57
2022/09/08 00:49:23;;;;;;;;;;;;;;;20.23;65.72;100725.94;5112977;27;20411;-56
2022/09/08 00:51:49;;;;;;;;;;;;;;;20.15;63.48;100735.72;5112986;28;19914;-57
2022/09/08 00:54:16;;;;;;;;;;;;;;;20.14;64.69;100731.31;5111866;28;19915;-57
2022/09/08 00:56:42;;;;;;;;;;;;;;;20.17;63.01;100727.44;5112830;28;20354;-57
2022/09/08 00:59:07;;;;;;;;;;;;;;;20.22;63.42;100725.09;5112172;28;19922;-57
2022/09/08 01:01:34;;;;;;;;;;;;;;;20.19;61.66;100718.16;5113182;28;20315;-57
2022/09/08 01:04:02;;;;;;;;;;;;;;;20.19;61.60;100712.78;5128650;28;19954;-57
2022/09/08 01:15:06;;;;;;;;;;;;;;;20.22;61.88;100708.91;5107666;28;19914;-57
2022/09/08 01:17:31;;;;;;;;;;;;;;;20.25;61.92;100707.72;5111690;28;19911;-56
2022/09/08 01:19:58;;;;;;;;;;;;;;;20.28;62.74;100697.44;5112595;28;20362;-57
2022/09/08 01:22:23;;;;;;;;;;;;;;;20.26;65.54;100685.94;5112836;28;19914;-57
2022/09/08 01:25:27;;;;;;;;;;;;;;;20.22;66.25;100684.59;5112655;28;19907;-57
2022/09/08 01:28:00;;;;;;;;;;;;;;;20.22;67.08;100679.19;5069816;28;19908;-57
2022/09/08 01:30:25;;;;;;;;;;;;;;;20.18;65.83;100677.84;5069354;28;19915;-57
2022/09/08 01:32:51;;;;;;;;;;;;;;;20.16;64.97;100675.28;5091948;28;19907;-57
2022/09/08 01:35:30;;;;;;;;;;;;;;;20.16;66.13;100677.16;5112543;28;19908;-57
2022/09/08 01:37:55;;;;;;;;;;;;;;;20.16;64.66;100679.84;5112561;28;19942;-57
2022/09/08 01:40:20;;;;;;;;;;;;;;;20.17;63.90;100684.22;5112475;28;20365;-57
2022/09/08 01:42:46;;;;;;;;;;;;;;;20.16;63.09;100683.38;5111085;28;19908;-57
2022/09/08 01:45:11;;;;;;;;;;;;;;;20.09;63.95;100678.78;5111989;28;19908;-57
2022/09/08 01:47:39;;;;;;;;;;;;;;;20.08;64.29;100682.50;5112570;28;19915;-57
2022/09/08 01:50:04;;;;;;;;;;;;;;;20.08;65.45;100677.09;5116112;28;20370;-57
2022/09/08 01:52:30;;;;;;;;;;;;;;;20.05;65.28;100672.88;5115250;28;19914;-57
2022/09/08 01:54:55;;;;;;;;;;;;;;;20.03;64.32;100663.25;5114857;28;20285;-57
2022/09/08 01:57:23;;;;;;;;;;;;;;;20.05;65.11;100659.38;5114560;28;20269;-57
2022/09/08 01:59:48;;;;;;;;;;;;;;;20.04;63.63;100663.09;5115832;28;20349;-57
2022/09/08 02:02:16;;;;;;;;;;;;;;;20.06;63.71;100660.22;5114745;28;19947;-56
2022/09/08 02:04:41;;;;;;;;;;;;;;;20.04;64.22;100656.84;5116048;28;19911;-56
2022/09/08 02:07:09;;;;;;;;;;;;;;;20.03;64.20;100655.13;5116090;28;19908;-57
2022/09/08 02:09:35;;;;;;;;;;;;;;;20.03;64.50;100653.31;5115853;28;19908;-57
2022/09/08 02:12:01;;;;;;;;;;;;;;;20.02;64.15;100634.56;5115903;28;20395;-57
2022/09/08 02:14:26;;;;;;;;;;;;;;;20.01;64.48;100633.72;5148656;27;19965;-57
2022/09/08 02:16:51;;;;;;;;;;;;;;;20.01;64.68;100641.81;5114623;28;19912;-57
2022/09/08 02:19:17;;;;;;;;;;;;;;;19.96;64.74;100633.34;5115613;28;20271;-57
2022/09/08 02:21:42;;;;;;;;;;;;;;;19.93;64.72;100633.69;5115874;28;19908;-57
2022/09/08 02:24:07;;;;;;;;;;;;;;;19.93;66.87;100631.81;5114232;28;19907;-57
2022/09/08 02:26:33;;;;;;;;;;;;;;;19.83;64.17;100632.97;5115660;27;19907;-57
2022/09/08 02:28:58;;;;;;;;;;;;;;;19.79;66.39;100637.00;5113850;28;19915;-57
2022/09/08 02:31:24;;;;;;;;;;;;;;;19.73;64.83;100631.22;5114298;28;19918;-57
2022/09/08 02:33:53;;;;;;;;;;;;;;;19.66;66.04;100629.34;5115568;28;19990;-57
2022/09/08 02:36:18;;;;;;;;;;;;;;;19.64;65.94;100623.22;5115517;28;19914;-57
2022/09/08 02:38:47;;;;;;;;;;;;;;;19.55;66.64;100621.50;5115445;28;19908;-57
2022/09/08 02:41:12;;;;;;;;;;;;;;;19.54;66.78;100630.63;5115109;28;19932;-57
2022/09/08 02:43:38;;;;;;;;;;;;;;;19.52;67.17;100638.84;5113564;28;20450;-57
2022/09/08 02:46:07;;;;;;;;;;;;;;;19.49;66.75;100631.91;5114239;28;20377;-57
2022/09/08 02:48:33;;;;;;;;;;;;;;;19.46;66.56;100636.78;5115370;28;19907;-57
2022/09/08 02:51:01;;;;;;;;;;;;;;;19.42;66.85;100638.13;5115326;28;20362;-57
2022/09/08 02:53:28;;;;;;;;;;;;;;;19.39;66.31;100635.75;5113762;28;19990;-57
2022/09/08 02:55:53;;;;;;;;;;;;;;;19.34;67.48;100627.28;5115158;28;19908;-57
2022/09/08 02:58:18;;;;;;;;;;;;;;;19.37;66.51;100624.28;5115118;28;20397;-57
2022/09/08 03:00:43;;;;;;;;;;;;;;;19.35;66.88;100629.81;5113138;28;20013;-57
2022/09/08 03:03:09;;;;;;;;;;;;;;;19.31;65.53;100624.91;5114602;28;19961;-57
2022/09/08 03:05:36;;;;;;;;;;;;;;;19.31;66.90;100623.06;5114466;28;19907;-57
2022/09/08 03:08:03;;;;;;;;;;;;;;;19.27;67.81;100622.53;5113574;28;19907;-57
2022/09/08 03:10:31;;;;;;;;;;;;;;;19.23;68.68;100629.22;5114689;28;19912;-57
2022/09/08 03:12:56;;;;;;;;;;;;;;;19.19;68.36;100630.56;5113592;28;19911;-57
2022/09/08 03:15:23;;;;;;;;;;;;;;;19.15;66.31;100629.19;5114138;28;19908;-57
2022/09/08 03:17:48;;;;;;;;;;;;;;;19.09;67.14;100634.34;5114776;28;19912;-56
2022/09/08 03:20:14;;;;;;;;;;;;;;;19.03;66.70;100631.31;5114416;28;19908;-57
2022/09/08 03:22:39;;;;;;;;;;;;;;;19.00;68.44;100634.31;5114407;28;19908;-57
2022/09/08 03:25:05;;;;;;;;;;;;;;;19.06;68.42;100627.44;5114382;28;19914;-57
2022/09/08 03:27:30;;;;;;;;;;;;;;;19.05;67.09;100631.97;5114800;28;19908;-57
2022/09/08 03:29:55;;;;;;;;;;;;;;;19.05;67.98;100631.97;5113975;28;19908;-57
2022/09/08 03:32:20;;;;;;;;;;;;;;;18.96;68.39;100645.56;5130207;27;19912;-57
2022/09/08 03:34:46;;;;;;;;;;;;;;;18.89;68.66;100648.03;5113041;28;19908;-57
2022/09/08 03:37:11;;;;;;;;;;;;;;;18.86;69.02;100658.28;5114156;28;19911;-56
2022/09/08 03:39:37;;;;;;;;;;;;;;;18.75;70.46;100673.66;5114080;28;19908;-57
2022/09/08 03:42:02;;;;;;;;;;;;;;;18.63;69.56;100676.72;5113089;28;19933;-57
2022/09/08 03:44:30;;;;;;;;;;;;;;;18.53;73.32;100674.97;5113659;28;19915;-57
2022/09/08 03:46:55;;;;;;;;;;;;;;;18.44;73.00;100642.69;5114229;28;20259;-57
2022/09/08 03:49:21;;;;;;;;;;;;;;;18.46;73.42;100627.22;5113850;28;19914;-56
2022/09/08 03:51:46;;;;;;;;;;;;;;;18.43;72.69;100630.22;5113862;28;20366;-56
2022/09/08 03:56:55;;;;;;;;;;;;;;;18.36;72.99;100632.69;5114108;28;20161;-56
2022/09/08 03:59:20;;;;;;;;;;;;;;;18.36;74.33;100628.16;5111971;28;20006;-57
2022/09/08 04:01:46;;;;;;;;;;;;;;;18.33;71.90;100619.53;5113862;28;19915;-56
2022/09/08 04:04:11;;;;;;;;;;;;;;;18.23;71.52;100627.66;5113381;28;20010;-56
2022/09/08 04:06:37;;;;;;;;;;;;;;;18.17;74.86;100615.66;5112277;28;20032;-56
2022/09/08 04:09:02;;;;;;;;;;;;;;;18.17;74.24;100615.66;5112496;28;19911;-57
2022/09/08 04:11:27;;;;;;;;;;;;;;;18.20;75.90;100619.88;5111803;28;19907;-56
2022/09/08 04:13:53;;;;;;;;;;;;;;;18.20;72.69;100616.34;5111841;28;20395;-56
2022/09/08 04:16:18;;;;;;;;;;;;;;;18.14;75.75;100623.19;5112299;28;19954;-57
2022/09/08 04:18:44;;;;;;;;;;;;;;;18.12;76.80;100627.91;5112213;28;19907;-56
2022/09/08 04:21:10;;;;;;;;;;;;;;;18.08;75.35;100630.00;5113218;28;19914;-56
2022/09/08 04:23:36;;;;;;;;;;;;;;;18.03;75.18;100626.97;5112155;28;20373;-56
2022/09/08 04:26:03;;;;;;;;;;;;;;;18.08;73.54;100629.19;5113675;28;19986;-56
2022/09/08 04:28:29;;;;;;;;;;;;;;;18.07;72.34;100632.88;5112800;28;19908;-57
2022/09/08 04:30:54;;;;;;;;;;;;;;;18.08;73.98;100632.72;5113294;28;19917;-56
2022/09/08 04:33:19;;;;;;;;;;;;;;;18.16;73.53;100646.28;5113199;28;20545;-56
2022/09/08 04:35:44;;;;;;;;;;;;;;;18.22;75.81;100638.59;5111686;28;20389;-56
2022/09/08 04:38:10;;;;;;;;;;;;;;;18.21;73.49;100639.59;5111929;28;19918;-56
2022/09/08 04:40:35;;;;;;;;;;;;;;;18.17;72.34;100645.25;5111904;28;20346;-57
2022/09/08 04:43:00;;;;;;;;;;;;;;;18.19;73.71;100644.28;5112146;28;19908;-56
2022/09/08 04:45:28;;;;;;;;;;;;;;;18.19;71.60;100647.81;5111316;28;19955;-56
2022/09/08 04:47:55;;;;;;;;;;;;;;;18.18;70.96;100646.13;5113259;28;19908;-57
2022/09/08 04:50:20;;;;;;;;;;;;;;;18.13;73.43;100643.88;5112642;28;19912;-56
2022/09/08 04:52:46;;;;;;;;;;;;;;;18.14;73.20;100642.88;5111844;28;19904;-57
2022/09/08 04:55:11;;;;;;;;;;;;;;;18.17;72.92;100645.25;5112884;28;19911;-56
2022/09/08 04:57:37;;;;;;;;;;;;;;;18.23;70.94;100649.19;5113034;28;20010;-56
2022/09/08 05:00:06;;;;;;;;;;;;;;;18.15;72.46;100649.13;5112627;28;19908;-56
2022/09/08 05:02:32;;;;;;;;;;;;;;;18.13;71.93;100648.41;5111590;28;19915;-56
2022/09/08 05:04:57;;;;;;;;;;;;;;;18.09;73.27;100652.44;5111307;28;19998;-56
2022/09/08 05:07:22;;;;;;;;;;;;;;;18.09;74.21;100652.44;5112949;28;19907;-56
2022/09/08 05:09:50;;;;;;;;;;;;;;;18.09;72.24;100647.88;5111624;28;20418;-57
2022/09/08 05:12:15;;;;;;;;;;;;;;;18.08;73.82;100651.56;5112973;28;19907;-56
2022/09/08 05:14:41;;;;;;;;;;;;;;;18.08;73.59;100651.56;5112291;28;20289;-57
2022/09/08 05:17:08;;;;;;;;;;;;;;;18.07;74.53;100655.25;5112815;28;19911;-57
2022/09/08 05:19:33;;;;;;;;;;;;;;;18.05;73.47;100662.63;5112543;28;20006;-57
2022/09/08 05:21:59;;;;;;;;;;;;;;;18.01;73.00;100657.69;5111571;28;19958;-57
2022/09/08 05:24:24;;;;;;;;;;;;;;;17.97;72.03;100661.66;5115564;28;19920;-56
2022/09/08 05:26:50;;;;;;;;;;;;;;;18.01;74.42;100661.25;5117046;28;20322;-57
2022/09/08 05:29:15;;;;;;;;;;;;;;;17.97;76.34;100658.97;5114942;28;19998;-57
2022/09/08 05:31:40;;;;;;;;;;;;;;;17.93;73.44;100653.06;5115478;28;19957;-57
2022/09/08 05:34:05;;;;;;;;;;;;;;;17.95;74.58;100658.31;5116338;28;19958;-57
2022/09/08 05:36:33;;;;;;;;;;;;;;;17.95;74.93;100650.22;5116788;28;19915;-57
2022/09/08 05:38:59;;;;;;;;;;;;;;;17.93;74.51;100661.13;5115461;28;19912;-57
2022/09/08 05:41:25;;;;;;;;;;;;;;;17.88;74.66;100656.22;5116357;28;20366;-57
2022/09/08 05:43:53;;;;;;;;;;;;;;;17.88;74.91;100656.22;5115747;28;19912;-57
2022/09/08 05:46:18;;;;;;;;;;;;;;;17.88;75.77;100655.34;5116423;28;19907;-57
2022/09/08 05:48:43;;;;;;;;;;;;;;;17.89;75.08;100657.91;5115962;28;20274;-57
2022/09/08 05:51:09;;;;;;;;;;;;;;;17.89;77.01;100660.59;5116283;28;20286;-57
2022/09/08 05:53:35;;;;;;;;;;;;;;;17.88;75.83;100658.03;5114800;28;19961;-57
2022/09/08 05:56:04;;;;;;;;;;;;;;;17.89;74.32;100657.91;5115217;28;19915;-57
2022/09/08 05:58:29;;;;;;;;;;;;;;;17.86;76.37;100647.44;5115725;28;19933;-57
2022/09/08 06:01:07;;;;;;;;;;;;;;;17.86;77.15;100651.97;5115872;28;19907;-57
2022/09/08 06:03:33;;;;;;;;;;;;;;;17.86;74.89;100662.72;5113478;28;20366;-57
2022/09/08 06:06:05;;;;;;;;;;;;;;;17.92;75.88;100659.44;5116017;28;19915;-57
2022/09/08 06:08:31;;;;;;;;;;;;;;;17.95;73.93;100658.31;5115994;28;19995;-57
2022/09/08 06:10:56;;;;;;;;;;;;;;;17.96;73.58;100666.22;5115923;28;19951;-57
2022/09/08 06:13:22;;;;;;;;;;;;;;;17.98;74.02;100668.78;5114397;28;19907;-57
2022/09/08 06:15:48;;;;;;;;;;;;;;;17.96;75.96;100665.38;5115549;28;20360;-57
2022/09/08 06:18:14;;;;;;;;;;;;;;;17.90;77.60;100672.19;5115421;28;19911;-57
2022/09/08 06:20:39;;;;;;;;;;;;;;;17.90;77.93;100667.66;5115693;28;19952;-57
2022/09/08 06:23:04;;;;;;;;;;;;;;;17.91;77.34;100664.00;5115740;28;19907;-57
2022/09/08 06:25:30;;;;;;;;;;;;;;;17.89;76.74;100665.13;5115529;28;19914;-57
2022/09/08 06:27:58;;;;;;;;;;;;;;;17.98;74.72;100660.69;5114405;28;19907;-56
2022/09/08 06:30:25;;;;;;;;;;;;;;;17.92;76.71;100662.97;5115416;28;20346;-57
2022/09/08 06:33:23;;;;;;;;;;;;;;;17.91;77.09;100664.00;5115249;28;19930;-57
2022/09/08 06:36:09;;;;;;;;;;;;;;;17.96;79.20;100660.00;5091411;28;19922;-57
2022/09/08 06:38:39;;;;;;;;;;;;;;;17.93;78.21;100669.19;5113508;28;20274;-57
2022/09/08 06:41:09;;;;;;;;;;;;;;;17.91;77.07;100671.19;5115513;28;19918;-57
2022/09/08 06:43:50;;;;;;;;;;;;;;;17.89;77.83;100665.97;5114670;28;19908;-57
2022/09/08 06:46:18;;;;;;;;;;;;;;;17.90;78.60;100673.03;5114924;28;20338;-57
2022/09/08 06:48:43;;;;;;;;;;;;;;;17.97;76.34;100677.81;5113892;28;19908;-56
2022/09/08 06:51:08;;;;;;;;;;;;;;;17.92;78.07;100679.13;5114076;28;19956;-56
2022/09/08 06:53:36;;;;;;;;;;;;;;;17.89;77.21;100675.88;5115099;28;19916;-56
2022/09/08 06:56:08;;;;;;;;;;;;;;;17.90;77.39;100678.41;5115297;28;19916;-56
2022/09/08 06:58:33;;;;;;;;;;;;;;;17.91;80.40;100680.13;5113334;28;19916;-56
2022/09/08 07:01:25;;;;;;;;;;;;;;;17.88;76.62;100676.88;5113513;28;19914;-56
2022/09/08 07:04:02;;;;;;;;;;;;;;;17.86;78.14;100677.03;5098123;27;20357;-56
2022/09/08 07:06:31;;;;;;;;;;;;;;;17.86;78.12;100674.34;5114819;28;19958;-56
2022/09/08 07:09:02;;;;;;;;;;;;;;;17.87;77.22;100680.56;5114811;27;20355;-56
2022/09/08 07:11:36;;;;;;;;;;;;;;;17.85;78.07;100680.72;5115131;28;20021;-56
2022/09/08 07:14:20;;;;;;;;;;;;;;;17.85;77.71;100674.47;5112977;28;20028;-56
2022/09/08 07:16:51;;;;;;;;;;;;;;;17.80;79.32;100672.25;5113056;28;20015;-56
2022/09/08 07:19:45;;;;;;;;;;;;;;;17.81;78.63;100673.09;5114518;28;19911;-56
2022/09/08 07:22:31;;;;;;;;;;;;;;;17.84;77.87;100676.31;5113140;28;19907;-56
2022/09/08 07:25:15;;;;;;;;;;;;;;;17.85;77.62;100674.47;5106968;27;19908;-56
2022/09/08 07:27:41;;;;;;;;;;;;;;;17.90;77.59;100673.03;5114582;28;19930;-56
2022/09/08 07:30:12;;;;;;;;;;;;;;;17.90;78.22;100673.03;5113696;28;20002;-56
2022/09/08 07:32:37;;;;;;;;;;;;;;;17.89;76.75;100683.97;5113069;28;19930;-56
2022/09/08 07:35:05;;;;;;;;;;;;;;;17.96;78.60;100684.22;5113015;28;19912;-56
2022/09/08 07:37:43;;;;;;;;;;;;;;;18.10;78.66;100684.56;5114607;28;20344;-56
2022/09/08 07:40:37;;;;;;;;;;;;;;;18.31;78.23;100688.84;5114074;28;20433;-56
2022/09/08 07:43:09;;;;;;;;;;;;;;;18.41;78.01;100675.31;5104831;28;19987;-56
2022/09/08 07:45:39;;;;;;;;;;;;;;;18.33;77.25;100682.31;5112615;28;19915;-56
2022/09/08 07:48:19;;;;;;;;;;;;;;;18.25;78.29;100676.81;5112783;28;19942;-56
2022/09/08 07:50:56;;;;;;;;;;;;;;;18.26;79.73;100672.28;5113873;28;19908;-56
2022/09/08 07:53:40;;;;;;;;;;;;;;;18.33;79.88;100676.91;5113747;28;19914;-56
2022/09/08 07:56:13;;;;;;;;;;;;;;;18.47;77.46;100682.78;5114045;28;19915;-56
2022/09/08 07:59:07;;;;;;;;;;;;;;;18.55;79.05;100688.25;5113061;28;20366;-57
2022/09/08 08:01:36;;;;;;;;;;;;;;;18.41;77.96;100691.47;5075954;28;19919;-56
2022/09/08 08:04:20;;;;;;;;;;;;;;;18.32;77.41;100696.78;5113481;27;20399;-56
2022/09/08 08:06:49;;;;;;;;;;;;;;;18.24;78.48;100693.16;5113682;28;19907;-56
2022/09/08 08:09:32;;;;;;;;;;;;;;;18.30;77.04;100697.94;5113511;28;19933;-56
2022/09/08 08:12:04;;;;;;;;;;;;;;;18.26;76.72;100694.66;5113573;28;20274;-56
2022/09/08 08:14:30;;;;;;;;;;;;;;;18.20;78.47;100695.25;5112815;28;20282;-57
2022/09/08 08:17:07;;;;;;;;;;;;;;;18.22;78.08;100692.44;5113562;28;19911;-56
2022/09/08 08:19:35;;;;;;;;;;;;;;;18.35;78.20;100693.78;5112125;28;19923;-56
2022/09/08 08:22:10;;;;;;;;;;;;;;;18.52;76.00;100693.94;5112307;28;20418;-57
2022/09/08 08:25:02;;;;;;;;;;;;;;;18.68;77.31;100694.13;5111988;28;20000;-56
2022/09/08 08:27:40;;;;;;;;;;;;;;;18.97;76.14;100702.00;5110967;27;19908;-56
2022/09/08 08:30:15;;;;;;;;;;;;;;;19.21;76.67;100697.84;5112826;28;19994;-57
2022/09/08 08:32:43;;;;;;;;;;;;;;;19.28;73.86;100697.03;5113333;28;19907;-56
2022/09/08 08:35:14;;;;;;;;;;;;;;;19.07;75.11;100704.63;5113046;28;19950;-56
2022/09/08 08:37:40;;;;;;;;;;;;;;;18.95;73.96;100698.63;5113122;28;20377;-57
2022/09/08 08:40:24;;;;;;;;;;;;;;;18.84;73.67;100699.69;5113196;28;19998;-56
2022/09/08 08:42:52;;;;;;;;;;;;;;;18.91;74.72;100699.91;5112858;28;19907;-56
2022/09/08 08:45:18;;;;;;;;;;;;;;;19.15;73.92;100693.91;5112463;28;19998;-56
2022/09/08 08:47:52;;;;;;;;;;;;;;;19.20;74.04;100696.97;5113086;28;19998;-56
2022/09/08 08:50:17;;;;;;;;;;;;;;;19.22;73.12;100700.34;5111691;28;19914;-56
2022/09/08 08:53:01;;;;;;;;;;;;;;;19.21;72.97;100700.53;5112904;28;19907;-56
2022/09/08 08:55:45;;;;;;;;;;;;;;;19.04;73.48;100699.53;5112669;28;20234;-56
2022/09/08 08:58:26;;;;;;;;;;;;;;;19.00;73.93;100704.41;5112341;28;19920;-57
2022/09/08 09:00:58;;;;;;;;;;;;;;;19.22;74.29;100697.66;5128799;28;20108;-56
2022/09/08 09:03:41;;;;;;;;;;;;;;;19.15;74.78;100701.13;5112422;28;19981;-56
2022/09/08 09:06:13;;;;;;;;;;;;;;;19.15;72.31;100695.72;5111673;28;19911;-56
2022/09/08 09:08:38;;;;;;;;;;;;;;;19.26;72.34;100692.78;5111308;28;19908;-56
2022/09/08 09:11:22;;;;;;;;;;;;;;;19.31;72.77;100700.44;5111576;28;20362;-56
2022/09/08 09:14:02;;;;;;;;;;;;;;;19.39;71.85;100697.78;5110978;28;19908;-56
2022/09/08 09:16:46;;;;;;;;;;;;;;;19.38;72.37;100696.91;5112685;28;20381;-56
2022/09/08 09:19:18;;;;;;;;;;;;;;;19.51;72.57;100697.38;5112493;28;19907;-56
2022/09/08 09:21:49;;;;;;;;;;;;;;;19.78;69.82;100686.59;5112792;28;19911;-56
2022/09/08 09:24:21;;;;;;;;;;;;;;;19.90;69.31;100694.25;5112487;28;20049;-56
2022/09/08 09:26:51;;;;;;;;;;;;;;;19.93;70.50;100691.22;5112550;28;19973;-56
2022/09/08 09:29:21;;;;;;;;;;;;;;;20.13;70.51;100690.97;5112078;28;19914;-56
2022/09/08 09:32:08;;;;;;;;;;;;;;;20.16;69.25;100686.09;5111273;28;19918;-57
2022/09/08 09:34:39;;;;;;;;;;;;;;;20.18;69.83;100692.19;5111372;28;20474;-56
2022/09/08 09:37:24;;;;;;;;;;;;;;;20.32;69.23;100695.25;5112628;28;19918;-56
2022/09/08 09:40:08;;;;;;;;;;;;;;;20.62;70.00;100694.72;5112182;28;20232;-57
2022/09/08 09:42:46;;;;;;;;;;;;;;;20.94;68.73;100698.47;5112665;28;20388;-57
2022/09/08 09:45:20;;;;;;;;;;;;;;;21.25;68.06;100704.03;5111908;28;19942;-57
2022/09/08 09:47:47;;;;;;;;;;;;;;;21.43;65.34;100698.47;5112515;28;19947;-57
2022/09/08 09:50:25;;;;;;;;;;;;;;;21.66;64.27;100692.34;5111035;28;19915;-57
2022/09/08 09:52:59;;;;;;;;;;;;;;;21.90;62.91;100699.53;5112416;28;19911;-56
2022/09/08 09:55:24;;;;;;;;;;;;;;;21.97;61.09;100689.69;5111933;28;19916;-56
2022/09/08 09:58:11;;;;;;;;;;;;;;;22.05;60.14;100694.25;5112363;28;19946;-56
2022/09/08 10:00:52;;;;;;;;;;;;;;;21.96;61.33;100696.97;5111746;28;20378;-56
2022/09/08 10:03:38;;;;;;;;;;;;;;;21.91;63.16;100698.50;5127695;28;19916;-57
2022/09/08 10:06:23;;;;;;;;;;;;;;;22.01;62.21;100699.16;5105083;27;20002;-56
2022/09/08 10:08:51;;;;;;;;;;;;;;;21.82;61.32;100705.81;5112041;28;19999;-56
2022/09/08 10:11:25;;;;;;;;;;;;;;;21.82;60.84;100705.81;5115896;28;19907;-57
2022/09/08 10:14:09;;;;;;;;;;;;;;;21.81;61.16;100704.13;5115335;28;20358;-56
2022/09/08 10:16:40;;;;;;;;;;;;;;;21.96;59.56;100715.09;5115724;28;19998;-56
2022/09/08 10:19:16;;;;;;;;;;;;;;;21.81;61.07;100709.56;5114583;28;19979;-57
2022/09/08 10:21:50;;;;;;;;;;;;;;;21.73;60.77;100707.69;5115746;28;19912;-56
2022/09/08 10:24:34;;;;;;;;;;;;;;;21.65;59.58;100709.59;5114084;28;19987;-56
2022/09/08 10:27:18;;;;;;;;;;;;;;;21.57;60.79;100706.91;5115943;28;19908;-56
2022/09/08 10:30:01;;;;;;;;;;;;;;;21.64;59.83;100711.44;5113817;28;19908;-56
2022/09/08 10:32:38;;;;;;;;;;;;;;;21.43;60.13;100717.41;5115567;28;19914;-56
2022/09/08 10:35:22;;;;;;;;;;;;;;;21.42;60.65;100710.31;5114145;28;19911;-56
2022/09/08 10:37:57;;;;;;;;;;;;;;;21.62;60.71;100716.22;5113937;28;19919;-56
2022/09/08 10:40:40;;;;;;;;;;;;;;;21.64;61.06;100713.31;5112004;28;19912;-56
2022/09/08 10:43:14;;;;;;;;;;;;;;;21.60;60.15;100702.00;5101091;28;19911;-56
2022/09/08 10:45:58;;;;;;;;;;;;;;;21.65;60.62;100701.47;5112030;28;19908;-57
2022/09/08 10:48:42;;;;;;;;;;;;;;;21.69;60.37;100705.53;5113638;28;19915;-56
2022/09/08 10:51:25;;;;;;;;;;;;;;;21.55;60.33;100698.94;5094225;28;19951;-57
2022/09/08 10:54:15;;;;;;;;;;;;;;;21.42;60.42;100702.19;5111638;27;19915;-57
2022/09/08 10:56:40;;;;;;;;;;;;;;;21.25;60.82;100705.91;5120208;27;19912;-56
2022/09/08 10:59:18;;;;;;;;;;;;;;;21.02;63.62;100708.44;5112270;27;19916;-56
2022/09/08 11:02:01;;;;;;;;;;;;;;;21.01;63.61;100704.88;5094445;28;19946;-57
2022/09/08 11:04:39;;;;;;;;;;;;;;;21.03;65.10;100702.88;5091831;28;20390;-57
2022/09/08 11:07:07;;;;;;;;;;;;;;;21.30;64.14;100693.56;5125378;27;20350;-57
2022/09/08 11:09:41;;;;;;;;;;;;;;;21.51;64.53;100689.50;5122682;27;19927;-57
2022/09/08 11:12:15;;;;;;;;;;;;;;;21.61;64.66;100692.00;5097053;28;20332;-57
2022/09/08 11:14:41;;;;;;;;;;;;;;;22.01;66.17;100685.63;5136335;27;19926;-57
2022/09/08 11:17:07;;;;;;;;;;;;;;;22.60;63.16;100686.03;5114188;28;19911;-57
2022/09/08 11:19:32;;;;;;;;;;;;;;;22.72;62.30;100686.47;5093835;28;20410;-59
2022/09/08 11:21:57;;;;;;;;;;;;;;;22.50;62.25;100681.84;5091365;28;19940;-58
2022/09/08 11:24:22;;;;;;;;;;;;;;;22.22;62.13;100680.47;5093793;28;20393;-58
2022/09/08 11:27:06;;;;;;;;;;;;;;;22.04;63.05;100688.00;5115068;27;19911;-59
2022/09/08 11:29:35;;;;;;;;;;;;;;;22.01;63.12;100682.91;5111391;27;19915;-58
2022/09/08 11:32:21;;;;;;;;;;;;;;;22.22;62.84;100682.34;5107733;27;20294;-59
2022/09/08 11:35:01;;;;;;;;;;;;;;;22.46;62.37;100675.94;5123323;27;20366;-59
2022/09/08 11:37:42;;;;;;;;;;;;;;;22.49;61.79;100672.88;5113466;27;19968;-59
2022/09/08 11:40:17;;;;;;;;;;;;;;;22.33;61.75;100676.53;5107943;28;19945;-58
2022/09/08 11:43:08;;;;;;;;;;;;;;;22.09;59.38;100672.06;5112540;28;19919;-59
2022/09/08 11:45:33;;;;;;;;;;;;;;;21.88;60.16;100679.91;5101353;28;19957;-59
2022/09/08 11:48:14;;;;;;;;;;;;;;;22.11;61.10;100671.88;5104795;27;19924;-59
2022/09/08 11:50:58;;;;;;;;;;;;;;;23.99;59.82;100668.47;5107583;28;19980;-59
2022/09/08 11:53:32;;;;;;;;;;;;;;;25.94;54.42;100662.81;5107579;28;19912;-59
2022/09/08 11:56:03;;;;;;;;;;;;;;;26.73;52.99;100664.13;5106926;28;19941;-59
2022/09/08 11:58:41;;;;;;;;;;;;;;;26.16;50.57;100668.16;5116067;27;20018;-59
2022/09/08 12:01:06;;;;;;;;;;;;;;;26.03;50.27;100660.72;5110608;27;19912;-59
2022/09/08 12:03:31;;;;;;;;;;;;;;;26.90;48.27;100659.97;5111511;28;20393;-59
2022/09/08 12:06:16;;;;;;;;;;;;;;;27.58;47.39;100653.44;5110859;28;19912;-59
2022/09/08 12:08:52;;;;;;;;;;;;;;;29.01;46.40;100639.50;5123605;27;19919;-59
2022/09/08 12:11:20;;;;;;;;;;;;;;;30.51;44.07;100646.53;5120110;27;20278;-60
2022/09/08 12:13:48;;;;;;;;;;;;;;;31.22;37.16;100655.78;5115621;27;19919;-60
2022/09/08 12:16:29;;;;;;;;;;;;;;;31.28;39.44;100641.09;5114075;27;19923;-59
2022/09/08 12:18:55;;;;;;;;;;;;;;;30.65;37.22;100634.28;5121529;27;20377;-59
2022/09/08 12:21:36;;;;;;;;;;;;;;;31.23;37.33;100641.78;5110807;28;19922;-59
2022/09/08 12:24:01;;;;;;;;;;;;;;;30.92;36.49;100636.66;5105852;28;20006;-59
2022/09/08 12:26:42;;;;;;;;;;;;;;;29.30;36.33;100640.75;5108914;27;20339;-59
2022/09/08 12:29:20;;;;;;;;;;;;;;;27.70;41.51;100650.88;5114024;27;19911;-59
2022/09/08 12:32:21;;;;;;;;;;;;;;;26.44;41.37;100648.94;5109694;27;19911;-59
2022/09/08 12:35:04;;;;;;;;;;;;;;;25.61;43.54;100652.53;5021900;28;20335;-59
2022/09/08 12:37:47;;;;;;;;;;;;;;;25.09;46.04;100656.53;5101298;28;19958;-59
2022/09/08 12:40:29;;;;;;;;;;;;;;;25.06;44.27;100643.31;5107205;28;19911;-59
2022/09/08 12:43:06;;;;;;;;;;;;;;;25.02;45.85;100644.72;5108378;28;20305;-59
2022/09/08 12:45:48;;;;;;;;;;;;;;;25.26;45.73;100637.19;5107217;28;20200;-59
2022/09/08 12:48:26;;;;;;;;;;;;;;;25.56;45.05;100643.25;5100197;28;19990;-59
2022/09/08 12:51:26;;;;;;;;;;;;;;;27.56;40.71;100634.53;5110974;28;19939;-59
2022/09/08 12:53:55;;;;;;;;;;;;;;;29.34;37.16;100638.41;5086188;28;19912;-59
2022/09/08 12:56:35;;;;;;;;;;;;;;;30.22;34.94;100629.00;5122708;27;19916;-59
2022/09/08 12:59:19;;;;;;;;;;;;;;;31.29;34.74;100633.66;5110859;28;19916;-59
2022/09/08 13:01:59;;;;;;;;;;;;;;;32.49;32.42;100637.66;5110109;28;19908;-59
2022/09/08 13:04:43;;;;;;;;;;;;;;;32.46;32.60;100630.72;5104649;28;19926;-59
2022/09/08 13:07:25;;;;;;;;;;;;;;;31.16;34.15;100632.84;5121824;28;20277;-59